Time;durP1;ratioP1;P1;durP2;ratioP2;P2;SDS_P1;SDS_P2;PMS_P1;PMS_P2;Temp;Humidity;BMP_temperature;BMP_pressure;BME280_temperature;BME280_humidity;BME280_pressure;Samples;Min_cycle;Max_cycle;Signal;HPM_P1;HPM_P2
2023/09/17 00:02:17;;;;;;;9.00;6.18;;;21.50;83.80;;;;;;5036493;28;20029;-80
2023/09/17 00:04:43;;;;;;;8.73;6.45;;;21.60;84.00;;;;;;5053837;28;20036;-80
2023/09/17 00:07:09;;;;;;;10.27;6.25;;;21.50;84.10;;;;;;5036369;28;20021;-80
2023/09/17 00:09:35;;;;;;;11.60;6.72;;;21.50;84.30;;;;;;5053975;28;20022;-80
2023/09/17 00:12:01;;;;;;;9.48;6.45;;;21.50;84.70;;;;;;5036240;28;20026;-80
2023/09/17 00:14:27;;;;;;;9.90;6.65;;;21.40;84.60;;;;;;5036319;28;20204;-80
2023/09/17 00:16:52;;;;;;;11.10;6.50;;;21.40;85.00;;;;;;5036269;28;20034;-80
2023/09/17 00:19:19;;;;;;;9.35;6.78;;;21.30;84.80;;;;;;5052776;28;20041;-80
2023/09/17 00:21:46;;;;;;;9.85;6.15;;;21.30;85.00;;;;;;5036431;28;20049;-80
2023/09/17 00:24:12;;;;;;;10.48;6.40;;;21.20;85.50;;;;;;5052653;28;20057;-80
2023/09/17 00:26:37;;;;;;;11.95;7.10;;;21.20;85.80;;;;;;5036178;28;20041;-80
2023/09/17 00:29:03;;;;;;;9.05;6.60;;;21.20;85.50;;;;;;5052677;28;20018;-80
2023/09/17 00:31:29;;;;;;;11.45;6.55;;;21.20;85.80;;;;;;5036064;28;20030;-80
2023/09/17 00:33:55;;;;;;;9.13;6.30;;;21.20;85.70;;;;;;5052160;28;20052;-80
2023/09/17 00:36:21;;;;;;;8.60;5.70;;;21.20;85.70;;;;;;5052356;28;20045;-79
2023/09/17 00:38:46;;;;;;;9.20;6.63;;;21.10;85.70;;;;;;5052698;28;20029;-80
2023/09/17 00:41:12;;;;;;;9.23;6.10;;;21.00;85.20;;;;;;5019512;28;20025;-81
2023/09/17 00:43:38;;;;;;;9.02;5.97;;;20.90;85.20;;;;;;5052381;28;20045;-80
2023/09/17 00:46:04;;;;;;;8.38;6.00;;;20.90;85.30;;;;;;5052277;28;20045;-81
2023/09/17 00:48:31;;;;;;;10.02;5.97;;;20.80;85.90;;;;;;5053284;28;20073;-80
2023/09/17 00:50:57;;;;;;;9.55;6.10;;;20.80;85.30;;;;;;5053288;28;20041;-80
2023/09/17 00:53:24;;;;;;;8.60;6.05;;;20.70;85.10;;;;;;5052289;28;20026;-80
2023/09/17 00:55:50;;;;;;;10.20;6.13;;;20.70;85.20;;;;;;5052530;28;20036;-80
2023/09/17 00:58:16;;;;;;;9.52;5.78;;;20.60;85.30;;;;;;5052325;28;20049;-80
2023/09/17 01:00:43;;;;;;;8.98;6.35;;;20.40;85.40;;;;;;5053197;28;20033;-80
2023/09/17 01:03:09;;;;;;;8.73;6.32;;;20.40;85.80;;;;;;5059543;28;20032;-80
2023/09/17 01:05:41;;;;;;;8.73;6.60;;;20.40;85.50;;;;;;5058772;28;20034;-80
2023/09/17 01:08:07;;;;;;;9.25;6.72;;;20.40;86.20;;;;;;5059803;28;20078;-80
2023/09/17 01:10:39;;;;;;;9.90;6.95;;;20.40;86.30;;;;;;5058780;28;20040;-79
2023/09/17 01:13:05;;;;;;;8.77;6.47;;;20.40;86.20;;;;;;5059803;28;20040;-78
2023/09/17 01:15:33;;;;;;;9.48;7.05;;;20.40;86.20;;;;;;5058674;28;20025;-81
2023/09/17 01:18:02;;;;;;;9.98;6.95;;;20.30;86.20;;;;;;5058620;28;20029;-80
2023/09/17 01:20:41;;;;;;;9.70;6.50;;;20.30;86.50;;;;;;5059622;28;20035;-79
2023/09/17 01:23:23;;;;;;;10.82;7.18;;;20.40;86.80;;;;;;5059633;28;20021;-79
2023/09/17 01:25:55;;;;;;;12.45;7.60;;;20.30;86.50;;;;;;5058590;28;20030;-80
2023/09/17 01:28:22;;;;;;;;;;;20.20;86.30;;;;;;5059033;28;20047;-79
2023/09/17 01:30:48;;;;;;;16.17;8.15;;;20.10;87.20;;;;;;5042044;28;19913;-78
2023/09/17 01:33:13;;;;;;;11.40;8.18;;;20.10;88.40;;;;;;5041886;28;20017;-78
2023/09/17 01:35:47;;;;;;;15.82;8.20;;;20.10;88.70;;;;;;5058081;28;20057;-78
2023/09/17 01:38:17;;;;;;;12.05;8.05;;;20.20;88.60;;;;;;5059484;28;20067;-78
2023/09/17 01:40:44;;;;;;;12.10;8.15;;;20.20;88.40;;;;;;5059451;28;20022;-78
2023/09/17 01:43:10;;;;;;;13.23;8.93;;;20.10;87.80;;;;;;5058473;28;20078;-77
2023/09/17 01:45:36;;;;;;;16.00;8.23;;;20.00;88.10;;;;;;5059305;28;20025;-78
2023/09/17 01:48:03;;;;;;;16.40;8.95;;;20.00;89.20;;;;;;5041904;28;20085;-78
2023/09/17 01:50:28;;;;;;;12.98;8.95;;;20.00;89.80;;;;;;5058442;28;20026;-78
2023/09/17 01:52:55;;;;;;;11.35;8.43;;;20.10;90.30;;;;;;5058336;28;20034;-78
2023/09/17 01:55:22;;;;;;;12.15;8.60;;;20.20;89.90;;;;;;5041820;28;20500;-78
2023/09/17 01:57:48;;;;;;;11.93;8.75;;;20.20;89.80;;;;;;5058460;28;20063;-78
2023/09/17 02:00:16;;;;;;;13.45;8.63;;;20.20;89.70;;;;;;5058223;28;20022;-78
2023/09/17 02:02:50;;;;;;;11.52;8.13;;;20.20;89.70;;;;;;5042122;28;20052;-78
2023/09/17 02:05:17;;;;;;;13.02;9.30;;;20.20;89.70;;;;;;5059159;28;20485;-78
2023/09/17 02:07:43;;;;;;;11.80;8.48;;;20.20;89.60;;;;;;5059185;28;20022;-78
2023/09/17 02:10:09;;;;;;;13.27;8.65;;;20.20;89.40;;;;;;5058208;28;20025;-78
2023/09/17 02:12:35;;;;;;;13.40;9.10;;;20.10;89.50;;;;;;5058209;28;20045;-78
2023/09/17 02:15:00;;;;;;;15.10;8.50;;;20.20;89.70;;;;;;5054523;28;20033;-78
2023/09/17 02:17:26;;;;;;;11.38;8.25;;;20.20;89.60;;;;;;5054949;28;20047;-78
2023/09/17 02:19:52;;;;;;;12.75;9.00;;;20.20;89.50;;;;;;5055930;28;20030;-78
2023/09/17 02:22:19;;;;;;;14.48;8.98;;;20.20;89.50;;;;;;5055868;28;20041;-78
2023/09/17 02:24:46;;;;;;;13.57;9.40;;;20.20;89.60;;;;;;5055801;28;20076;-78
2023/09/17 02:27:13;;;;;;;12.98;8.73;;;20.20;89.50;;;;;;5054869;28;20049;-78
2023/09/17 02:29:40;;;;;;;11.90;9.00;;;20.20;89.50;;;;;;5054893;28;20026;-78
2023/09/17 02:32:05;;;;;;;15.40;9.23;;;20.20;89.60;;;;;;5054690;28;20093;-78
2023/09/17 02:34:31;;;;;;;13.20;8.70;;;20.20;89.70;;;;;;5055463;28;20026;-78
2023/09/17 02:36:57;;;;;;;12.32;9.00;;;20.20;89.80;;;;;;5038013;28;20037;-78
2023/09/17 02:39:23;;;;;;;14.40;8.82;;;20.20;89.90;;;;;;5055582;28;20053;-78
2023/09/17 02:41:48;;;;;;;16.40;9.73;;;20.10;89.80;;;;;;5054579;28;20029;-78
2023/09/17 02:44:14;;;;;;;13.82;9.50;;;20.10;89.90;;;;;;5054545;28;20022;-78
2023/09/17 02:46:40;;;;;;;15.10;9.60;;;20.10;90.00;;;;;;5055352;28;20493;-78
2023/09/17 02:49:06;;;;;;;13.15;9.80;;;20.10;90.00;;;;;;5054447;28;20014;-78
2023/09/17 02:51:31;;;;;;;13.75;9.77;;;20.10;90.00;;;;;;5055357;28;20022;-78
2023/09/17 02:53:57;;;;;;;13.77;9.15;;;20.10;90.00;;;;;;5037696;28;20040;-78
2023/09/17 02:56:22;;;;;;;13.40;9.00;;;20.10;90.00;;;;;;5054282;28;20029;-78
2023/09/17 02:58:48;;;;;;;14.73;10.15;;;20.10;90.10;;;;;;5054214;28;20032;-78
2023/09/17 03:01:18;;;;;;;17.38;10.75;;;20.10;90.10;;;;;;5054204;28;20029;-78
2023/09/17 03:03:47;;;;;;;14.40;9.68;;;20.00;90.10;;;;;;5055138;28;20097;-78
2023/09/17 03:06:13;;;;;;;13.57;9.48;;;20.00;90.20;;;;;;5055001;28;20060;-78
2023/09/17 03:08:41;;;;;;;12.52;9.48;;;19.90;90.30;;;;;;5037532;28;20030;-78
2023/09/17 03:11:13;;;;;;;14.90;9.77;;;19.90;90.40;;;;;;5055002;28;20026;-78
2023/09/17 03:13:42;;;;;;;14.70;9.80;;;19.90;90.50;;;;;;5055098;28;20071;-78
2023/09/17 03:16:09;;;;;;;15.32;10.52;;;19.90;90.60;;;;;;5054995;28;20052;-78
2023/09/17 03:18:35;;;;;;;15.05;10.65;;;19.90;90.60;;;;;;5054814;28;20025;-78
2023/09/17 03:21:06;;;;;;;14.85;10.27;;;19.90;90.70;;;;;;5053802;28;20030;-78
2023/09/17 03:23:31;;;;;;;13.13;9.70;;;20.00;90.70;;;;;;5053937;28;20056;-78
2023/09/17 03:25:57;;;;;;;16.33;10.73;;;19.90;90.70;;;;;;5053492;28;20030;-78
2023/09/17 03:28:23;;;;;;;16.70;10.65;;;20.00;90.80;;;;;;5037105;28;20060;-78
2023/09/17 03:30:48;;;;;;;14.85;10.43;;;20.00;90.80;;;;;;5053704;28;20073;-78
2023/09/17 03:33:14;;;;;;;14.68;10.07;;;19.90;90.80;;;;;;5053648;28;20033;-78
2023/09/17 03:35:39;;;;;;;17.52;10.93;;;19.90;90.80;;;;;;5020403;28;20061;-78
2023/09/17 03:38:05;;;;;;;14.88;11.23;;;19.80;90.80;;;;;;5053491;28;20036;-78
2023/09/17 03:40:31;;;;;;;16.13;11.10;;;19.80;91.00;;;;;;5054381;28;20029;-78
2023/09/17 03:42:57;;;;;;;16.40;10.63;;;19.80;91.00;;;;;;5036908;28;20036;-78
2023/09/17 03:45:22;;;;;;;16.83;11.18;;;19.70;91.10;;;;;;5053250;28;20097;-78
2023/09/17 03:47:48;;;;;;;16.40;11.45;;;19.70;91.20;;;;;;5054245;28;20034;-78
2023/09/17 03:50:16;;;;;;;15.15;10.95;;;19.70;91.30;;;;;;5053254;28;20052;-78
2023/09/17 03:52:45;;;;;;;15.63;11.35;;;19.70;91.30;;;;;;5036684;28;20022;-78
2023/09/17 03:55:12;;;;;;;17.45;11.43;;;19.60;91.80;;;;;;5054115;28;20040;-78
2023/09/17 03:57:38;;;;;;;16.95;12.05;;;19.60;91.60;;;;;;5054097;28;20034;-78
2023/09/17 04:00:10;;;;;;;18.42;11.65;;;19.60;91.70;;;;;;5054062;28;20088;-78
2023/09/17 04:02:40;;;;;;;16.60;11.32;;;19.60;91.70;;;;;;5053213;28;20034;-78
2023/09/17 04:05:10;;;;;;;17.17;11.25;;;19.50;91.80;;;;;;5053848;28;20385;-78
2023/09/17 04:07:37;;;;;;;16.70;11.73;;;19.50;92.00;;;;;;5054098;28;20026;-78
2023/09/17 04:10:05;;;;;;;18.98;12.50;;;19.50;92.20;;;;;;5053107;28;20052;-78
2023/09/17 04:12:35;;;;;;;20.60;14.07;;;19.50;92.20;;;;;;5053845;28;20485;-78
2023/09/17 04:15:08;;;;;;;17.08;12.05;;;19.50;92.50;;;;;;5053752;28;20033;-78
2023/09/17 04:17:34;;;;;;;22.58;13.35;;;19.40;92.50;;;;;;5053771;28;20022;-78
2023/09/17 04:20:00;;;;;;;19.85;12.82;;;19.30;92.70;;;;;;5052654;28;20033;-78
2023/09/17 04:22:25;;;;;;;18.23;12.35;;;19.30;92.80;;;;;;5053648;28;20021;-78
2023/09/17 04:24:51;;;;;;;15.80;11.63;;;19.30;92.90;;;;;;5036123;28;20515;-77
2023/09/17 04:27:17;;;;;;;19.45;12.90;;;19.30;93.10;;;;;;5052721;28;20025;-77
2023/09/17 04:29:43;;;;;;;20.20;13.60;;;19.30;93.10;;;;;;5052580;28;20026;-78
2023/09/17 04:32:08;;;;;;;18.27;11.93;;;19.30;93.10;;;;;;5053475;28;20041;-78
2023/09/17 04:34:34;;;;;;;19.20;12.80;;;19.30;93.20;;;;;;5053171;28;20025;-78
2023/09/17 04:37:00;;;;;;;17.83;11.88;;;19.40;93.20;;;;;;5051923;28;20139;-78
2023/09/17 04:39:26;;;;;;;18.92;12.55;;;19.50;93.20;;;;;;5053426;28;20021;-78
2023/09/17 04:41:52;;;;;;;21.80;14.02;;;19.50;93.20;;;;;;5036013;28;20033;-78
2023/09/17 04:44:17;;;;;;;20.55;13.20;;;19.40;93.30;;;;;;5019685;28;20026;-78
2023/09/17 04:46:43;;;;;;;20.05;13.18;;;19.40;93.50;;;;;;5052207;28;20041;-78
2023/09/17 04:49:09;;;;;;;17.17;12.45;;;19.50;93.60;;;;;;5053260;28;20022;-78
2023/09/17 04:51:35;;;;;;;21.30;13.30;;;19.40;93.70;;;;;;5035939;28;20030;-78
2023/09/17 04:54:04;;;;;;;20.13;13.35;;;19.50;93.70;;;;;;5052173;28;20028;-78
2023/09/17 04:56:30;;;;;;;19.27;13.27;;;19.50;93.70;;;;;;5052322;28;20396;-78
2023/09/17 04:58:59;;;;;;;20.02;13.93;;;19.50;93.80;;;;;;5035946;28;20452;-78
2023/09/17 05:01:26;;;;;;;20.30;13.05;;;19.50;93.80;;;;;;5053214;28;20512;-77
2023/09/17 05:03:53;;;;;;;19.92;13.15;;;19.50;93.80;;;;;;5053152;28;20049;-78
2023/09/17 05:06:18;;;;;;;20.27;13.27;;;19.50;93.90;;;;;;5052042;28;20040;-78
2023/09/17 05:08:44;;;;;;;18.33;12.48;;;19.50;93.90;;;;;;5053072;28;20026;-78
2023/09/17 05:11:10;;;;;;;19.50;13.15;;;19.50;94.00;;;;;;5052210;28;20036;-78
2023/09/17 05:13:35;;;;;;;18.63;12.30;;;19.60;94.00;;;;;;5052111;28;20029;-78
2023/09/17 05:16:03;;;;;;;17.13;12.23;;;19.60;94.10;;;;;;5052096;28;20042;-78
2023/09/17 05:18:28;;;;;;;19.38;12.52;;;19.50;94.10;;;;;;5051979;28;20029;-78
2023/09/17 05:20:54;;;;;;;18.45;13.02;;;19.60;94.30;;;;;;5035544;28;20028;-78
2023/09/17 05:23:23;;;;;;;21.38;13.68;;;19.60;94.30;;;;;;5052047;28;20034;-78
2023/09/17 05:25:50;;;;;;;20.73;12.90;;;19.60;94.30;;;;;;5051923;28;20033;-78
2023/09/17 05:28:16;;;;;;;20.38;13.20;;;19.70;94.30;;;;;;5051946;28;20021;-78
2023/09/17 05:30:41;;;;;;;18.75;12.95;;;19.60;94.30;;;;;;5052859;28;20025;-78
2023/09/17 05:33:07;;;;;;;19.70;12.77;;;19.60;94.30;;;;;;5051940;28;20038;-78
2023/09/17 05:35:35;;;;;;;21.40;13.65;;;19.70;94.30;;;;;;5051566;28;20041;-78
2023/09/17 05:38:01;;;;;;;20.40;12.73;;;19.50;94.50;;;;;;5051840;28;20025;-78
2023/09/17 05:40:27;;;;;;;20.20;14.20;;;19.40;94.80;;;;;;5051843;28;20114;-79
2023/09/17 05:42:52;;;;;;;21.85;14.25;;;19.40;95.00;;;;;;5051941;28;20052;-79
2023/09/17 05:45:18;;;;;;;21.63;13.88;;;19.50;95.10;;;;;;5051754;28;20033;-79
2023/09/17 05:47:44;;;;;;;23.48;14.50;;;19.50;95.00;;;;;;5051645;28;20037;-79
2023/09/17 05:50:12;;;;;;;24.15;15.13;;;19.50;95.20;;;;;;5038713;28;20022;-78
2023/09/17 05:52:38;;;;;;;21.88;14.55;;;19.50;95.30;;;;;;5055589;28;20037;-78
2023/09/17 05:55:04;;;;;;;21.92;13.68;;;19.50;95.20;;;;;;5056396;28;20041;-79
2023/09/17 05:57:30;;;;;;;20.77;13.43;;;19.50;95.40;;;;;;5038869;28;20060;-78
2023/09/17 05:59:57;;;;;;;20.23;12.93;;;19.50;95.30;;;;;;5056336;28;20056;-78
2023/09/17 06:02:22;;;;;;;23.45;14.60;;;19.60;95.30;;;;;;5038687;28;20036;-78
2023/09/17 06:04:52;;;;;;;20.30;13.55;;;19.60;95.30;;;;;;5056077;28;20033;-78
2023/09/17 06:07:19;;;;;;;23.08;14.00;;;19.60;95.30;;;;;;5039373;28;20021;-78
2023/09/17 06:09:44;;;;;;;21.55;13.60;;;19.60;95.40;;;;;;5055187;28;20030;-79
2023/09/17 06:12:10;;;;;;;23.33;13.95;;;19.60;95.30;;;;;;5055315;28;20033;-79
2023/09/17 06:14:36;;;;;;;23.98;14.43;;;19.70;95.40;;;;;;5055039;28;20022;-79
2023/09/17 06:17:02;;;;;;;24.17;13.13;;;19.70;95.40;;;;;;5038567;28;20567;-79
2023/09/17 06:19:29;;;;;;;19.73;13.50;;;19.70;95.30;;;;;;5055946;28;20033;-79
2023/09/17 06:21:55;;;;;;;21.88;14.90;;;19.70;95.30;;;;;;5055042;28;20025;-79
2023/09/17 06:24:20;;;;;;;22.92;13.70;;;19.80;95.20;;;;;;5038330;28;20029;-78
2023/09/17 06:26:46;;;;;;;20.40;13.60;;;19.80;95.20;;;;;;5038330;28;20032;-79
2023/09/17 06:29:12;;;;;;;21.95;13.77;;;19.80;95.20;;;;;;5055777;28;20025;-78
2023/09/17 06:31:38;;;;;;;21.30;13.20;;;19.90;95.20;;;;;;5038095;28;20048;-79
2023/09/17 06:34:04;;;;;;;19.10;12.90;;;19.90;95.10;;;;;;5055801;28;20076;-78
2023/09/17 06:36:30;;;;;;;18.85;12.73;;;19.90;95.10;;;;;;5037993;28;20425;-81
2023/09/17 06:38:56;;;;;;;20.40;13.18;;;19.90;95.50;;;;;;5054593;28;20053;-77
2023/09/17 06:41:21;;;;;;;21.73;12.93;;;19.90;95.00;;;;;;5054659;28;20044;-78
2023/09/17 06:43:47;;;;;;;21.00;13.70;;;19.90;95.10;;;;;;5055527;28;20037;-78
2023/09/17 06:46:13;;;;;;;20.52;13.57;;;19.90;95.10;;;;;;5055391;28;20438;-79
2023/09/17 06:48:39;;;;;;;23.13;14.48;;;19.90;95.10;;;;;;5054448;28;20033;-81
2023/09/17 06:51:04;;;;;;;21.30;13.73;;;19.90;95.10;;;;;;5055362;28;20033;-81
2023/09/17 06:53:30;;;;;;;23.95;15.57;;;19.90;95.10;;;;;;5021521;28;20022;-82
2023/09/17 06:55:58;;;;;;;23.85;14.73;;;19.90;95.20;;;;;;5054222;28;20044;-79
2023/09/17 06:58:24;;;;;;;25.33;15.30;;;19.90;95.20;;;;;;5054201;28;20022;-80
2023/09/17 07:00:49;;;;;;;22.67;14.63;;;19.90;95.20;;;;;;5053611;28;20032;-81
2023/09/17 07:03:15;;;;;;;24.38;14.77;;;19.90;95.30;;;;;;5054182;28;20034;-81
2023/09/17 07:05:41;;;;;;;23.92;15.50;;;19.90;95.30;;;;;;5054071;28;20060;-84
2023/09/17 07:08:07;;;;;;;21.13;14.57;;;19.90;95.30;;;;;;5037535;28;20113;-82
2023/09/17 07:10:33;;;;;;;23.90;15.20;;;19.90;95.40;;;;;;5054169;28;20071;-83
2023/09/17 07:12:59;;;;;;;24.80;15.82;;;19.90;95.50;;;;;;5037488;28;20055;-79
2023/09/17 07:15:25;;;;;;;24.35;15.48;;;19.90;95.40;;;;;;5053954;28;20060;-80
2023/09/17 07:17:52;;;;;;;28.27;16.55;;;19.90;95.40;;;;;;5037446;28;20032;-80
2023/09/17 07:20:19;;;;;;;26.63;17.02;;;19.90;95.40;;;;;;5054787;28;20088;-80
2023/09/17 07:22:46;;;;;;;25.65;16.55;;;19.90;95.50;;;;;;5053705;28;20025;-82
2023/09/17 07:25:12;;;;;;;28.60;16.45;;;19.80;95.50;;;;;;5053748;28;20029;-80
2023/09/17 07:27:38;;;;;;;26.98;15.70;;;19.80;95.60;;;;;;5037200;28;20033;-80
2023/09/17 07:30:05;;;;;;;28.40;18.05;;;19.80;95.60;;;;;;5054649;28;20018;-80
2023/09/17 07:32:31;;;;;;;28.10;16.55;;;19.90;95.70;;;;;;5054628;28;20048;-80
2023/09/17 07:34:57;;;;;;;30.58;18.08;;;19.90;95.60;;;;;;5053401;28;20034;-80
2023/09/17 07:37:23;;;;;;;31.67;18.60;;;19.80;95.70;;;;;;5054455;28;20034;-80
2023/09/17 07:39:55;;;;;;;30.80;18.55;;;19.80;95.70;;;;;;5053425;28;20017;-79
2023/09/17 07:42:21;;;;;;;28.08;18.17;;;19.80;95.80;;;;;;5054412;28;20108;-80
2023/09/17 07:44:47;;;;;;;31.67;19.52;;;19.90;95.80;;;;;;5036844;28;20025;-80
2023/09/17 07:47:12;;;;;;;30.63;18.52;;;19.90;95.80;;;;;;5053239;28;20048;-80
2023/09/17 07:49:38;;;;;;;34.78;18.70;;;19.90;95.80;;;;;;5036847;28;20040;-80
2023/09/17 07:52:04;;;;;;;30.73;18.65;;;19.80;95.80;;;;;;5054180;28;20036;-80
2023/09/17 07:54:36;;;;;;;32.20;19.20;;;19.80;95.80;;;;;;5054185;28;20031;-80
2023/09/17 07:57:04;;;;;;;33.13;19.20;;;19.90;95.90;;;;;;5054172;28;20036;-80
2023/09/17 07:59:30;;;;;;;32.58;19.85;;;19.90;95.80;;;;;;5053167;28;20026;-80
2023/09/17 08:01:56;;;;;;;34.35;20.48;;;19.90;95.90;;;;;;5054051;28;20056;-80
2023/09/17 08:04:22;;;;;;;30.70;18.83;;;19.80;95.90;;;;;;5036468;28;20030;-80
2023/09/17 08:06:49;;;;;;;33.58;19.35;;;19.80;95.90;;;;;;5053072;28;20071;-80
2023/09/17 08:09:15;;;;;;;29.35;18.98;;;19.90;95.90;;;;;;5052953;28;20093;-80
2023/09/17 08:11:42;;;;;;;29.58;18.80;;;19.90;95.90;;;;;;5052040;28;20029;-80
2023/09/17 08:14:08;;;;;;;33.17;18.55;;;19.90;95.90;;;;;;5020411;28;20061;-80
2023/09/17 08:16:35;;;;;;;30.15;18.77;;;19.90;95.90;;;;;;5053795;28;20060;-80
2023/09/17 08:19:01;;;;;;;30.48;18.70;;;20.00;95.90;;;;;;5052793;28;20045;-80
2023/09/17 08:21:27;;;;;;;27.65;17.90;;;20.00;95.90;;;;;;5053712;28;20049;-80
2023/09/17 08:23:53;;;;;;;28.42;18.50;;;20.00;95.90;;;;;;5052698;28;20030;-80
2023/09/17 08:26:21;;;;;;;29.30;18.83;;;20.00;95.90;;;;;;5052498;28;20025;-80
2023/09/17 08:28:47;;;;;;;32.63;18.77;;;20.00;95.90;;;;;;5036512;28;20088;-80
2023/09/17 08:31:12;;;;;;;30.40;18.92;;;20.00;96.00;;;;;;5052564;28;20041;-80
2023/09/17 08:33:38;;;;;;;31.13;19.60;;;20.00;96.00;;;;;;5053383;28;20033;-80
2023/09/17 08:36:05;;;;;;;32.13;18.85;;;20.00;95.90;;;;;;5052332;28;20053;-80
2023/09/17 08:38:31;;;;;;;31.55;20.40;;;20.00;96.00;;;;;;5053485;28;20018;-80
2023/09/17 08:40:58;;;;;;;33.38;21.10;;;20.00;96.10;;;;;;5053433;28;20021;-81
2023/09/17 08:43:25;;;;;;;34.80;20.27;;;20.10;96.20;;;;;;5052334;28;20035;-80
2023/09/17 08:45:51;;;;;;;35.03;19.98;;;20.10;96.50;;;;;;5053276;28;20072;-80
2023/09/17 08:48:17;;;;;;;31.77;19.73;;;20.10;96.20;;;;;;5052437;28;20022;-80
2023/09/17 08:50:50;;;;;;;30.92;20.08;;;20.10;96.20;;;;;;5035912;28;20037;-80
2023/09/17 08:53:31;;;;;;;35.80;22.17;;;20.10;96.10;;;;;;5052287;28;20017;-80
2023/09/17 08:56:00;;;;;;;30.35;19.42;;;20.00;96.20;;;;;;5052265;28;20051;-80
2023/09/17 08:58:31;;;;;;;36.33;21.38;;;20.00;96.30;;;;;;5053184;28;20025;-80
2023/09/17 09:01:03;;;;;;;33.92;20.90;;;20.10;96.40;;;;;;5052307;28;20094;-80
2023/09/17 09:03:33;;;;;;;36.05;21.60;;;20.10;96.40;;;;;;5053236;28;20100;-80
2023/09/17 09:06:00;;;;;;;33.90;20.48;;;20.10;96.40;;;;;;5052286;28;20021;-80
2023/09/17 09:08:27;;;;;;;38.38;22.45;;;20.20;96.40;;;;;;5052186;28;20484;-80
2023/09/17 09:10:53;;;;;;;36.03;20.77;;;20.20;96.30;;;;;;5053111;28;20048;-80
2023/09/17 09:13:20;;;;;;;34.50;20.70;;;20.30;96.30;;;;;;5035483;28;20026;-80
2023/09/17 09:15:47;;;;;;;34.80;21.15;;;20.20;96.20;;;;;;5052113;28;20033;-80
2023/09/17 09:18:13;;;;;;;34.58;21.23;;;20.20;96.20;;;;;;5052027;28;20048;-80
2023/09/17 09:20:40;;;;;;;35.58;20.48;;;20.20;96.30;;;;;;5035589;28;20030;-80
2023/09/17 09:23:07;;;;;;;39.60;21.98;;;20.20;96.30;;;;;;5054834;28;20025;-80
2023/09/17 09:25:33;;;;;;;34.92;22.00;;;20.20;96.30;;;;;;5057095;28;20032;-80
2023/09/17 09:28:00;;;;;;;35.30;21.70;;;20.20;96.40;;;;;;5055975;28;20029;-79
2023/09/17 09:30:27;;;;;;;39.92;22.52;;;20.20;96.40;;;;;;5055948;28;20017;-80
2023/09/17 09:32:52;;;;;;;38.08;22.75;;;20.20;96.50;;;;;;5055819;28;20061;-80
2023/09/17 09:35:19;;;;;;;36.15;22.17;;;20.20;96.40;;;;;;5055579;28;20060;-79
2023/09/17 09:37:45;;;;;;;39.22;23.23;;;20.20;96.30;;;;;;5055747;28;20041;-80
2023/09/17 09:40:13;;;;;;;37.92;22.65;;;20.20;96.40;;;;;;5055650;28;20488;-79
2023/09/17 09:42:38;;;;;;;41.40;23.23;;;20.20;96.60;;;;;;5039624;28;20033;-80
2023/09/17 09:45:04;;;;;;;39.03;22.90;;;20.20;96.70;;;;;;5055627;28;20079;-80
2023/09/17 09:47:30;;;;;;;38.55;24.55;;;20.10;96.80;;;;;;5055592;28;20036;-80
2023/09/17 09:49:56;;;;;;;39.28;23.10;;;20.20;96.90;;;;;;5055420;28;20014;-80
2023/09/17 09:52:24;;;;;;;43.50;22.60;;;20.20;96.90;;;;;;5056467;28;20033;-80
2023/09/17 09:54:49;;;;;;;42.15;24.88;;;20.30;96.90;;;;;;5056438;28;20014;-80
2023/09/17 09:57:18;;;;;;;43.15;23.88;;;20.30;97.10;;;;;;5056387;28;20552;-80
2023/09/17 09:59:46;;;;;;;41.72;25.38;;;20.40;97.10;;;;;;5055404;28;20056;-80
2023/09/17 10:02:20;;;;;;;44.55;26.08;;;20.50;97.30;;;;;;5056306;28;20041;-80
2023/09/17 10:04:46;;;;;;;46.03;25.48;;;20.50;97.30;;;;;;5056336;28;20018;-80
2023/09/17 10:07:16;;;;;;;46.30;26.17;;;20.70;97.40;;;;;;5056143;28;20385;-80
2023/09/17 10:09:42;;;;;;;46.28;25.75;;;20.70;97.20;;;;;;5038705;28;20044;-80
2023/09/17 10:12:08;;;;;;;42.40;24.80;;;20.70;97.20;;;;;;5055125;28;20029;-80
2023/09/17 10:14:38;;;;;;;43.70;26.40;;;20.60;97.20;;;;;;5054965;28;20022;-80
2023/09/17 10:17:06;;;;;;;45.38;25.88;;;20.70;97.10;;;;;;5054983;28;20026;-80
2023/09/17 10:19:34;;;;;;;47.10;27.52;;;20.70;97.20;;;;;;5055990;28;20396;-80
2023/09/17 10:22:03;;;;;;;46.20;26.05;;;20.70;97.20;;;;;;5055007;28;20026;-80
2023/09/17 10:24:30;;;;;;;46.40;26.27;;;20.70;97.30;;;;;;5054954;28;20026;-79
2023/09/17 10:26:58;;;;;;;42.42;25.48;;;20.80;97.40;;;;;;5054734;28;20037;-81
2023/09/17 10:29:25;;;;;;;45.95;26.42;;;20.80;97.30;;;;;;5055826;28;20029;-80
2023/09/17 10:31:51;;;;;;;45.38;26.92;;;20.80;97.30;;;;;;5055763;28;20022;-80
2023/09/17 10:34:18;;;;;;;45.85;26.38;;;20.80;97.30;;;;;;5037309;28;20030;-80
2023/09/17 10:36:45;;;;;;;46.17;25.98;;;20.80;97.40;;;;;;5038240;28;20045;-81
2023/09/17 10:39:13;;;;;;;46.47;26.35;;;20.80;97.40;;;;;;5055608;28;20081;-80
2023/09/17 10:41:41;;;;;;;46.13;24.95;;;20.90;97.40;;;;;;5038102;28;20055;-81
2023/09/17 10:44:07;;;;;;;45.83;25.08;;;20.90;97.50;;;;;;5054678;28;20017;-80
2023/09/17 10:46:36;;;;;;;44.35;25.65;;;21.00;97.70;;;;;;5055354;28;20037;-81
2023/09/17 10:49:02;;;;;;;44.38;24.92;;;21.00;97.70;;;;;;5038028;28;20447;-80
2023/09/17 10:51:28;;;;;;;42.53;25.02;;;21.00;97.80;;;;;;5054376;28;20017;-81
2023/09/17 10:53:57;;;;;;;43.13;24.90;;;21.00;97.80;;;;;;5055333;28;20052;-81
2023/09/17 10:56:23;;;;;;;44.45;24.73;;;21.00;97.80;;;;;;5054368;28;20040;-80
2023/09/17 10:58:50;;;;;;;42.72;23.92;;;21.10;97.80;;;;;;5054471;28;20091;-80
2023/09/17 11:01:23;;;;;;;42.15;23.90;;;21.10;97.80;;;;;;5054254;28;20045;-80
2023/09/17 11:03:52;;;;;;;44.10;25.65;;;21.10;98.00;;;;;;5054204;28;20033;-81
2023/09/17 11:06:23;;;;;;;44.47;25.88;;;21.10;97.80;;;;;;5054004;28;20044;-80
2023/09/17 11:08:55;;;;;;;43.95;24.48;;;21.10;97.80;;;;;;5055087;28;20025;-80
2023/09/17 11:11:23;;;;;;;46.88;25.85;;;21.20;97.90;;;;;;5054037;28;20028;-81
2023/09/17 11:13:50;;;;;;;40.40;23.88;;;21.20;98.10;;;;;;5053986;28;20032;-81
2023/09/17 11:16:18;;;;;;;42.35;23.13;;;21.20;98.10;;;;;;5054914;28;20113;-82
2023/09/17 11:19:29;;;;;;;39.45;22.00;;;21.20;98.10;;;;;;5054866;28;20029;-85
2023/09/17 11:22:04;;;;;;;33.03;19.08;;;21.30;98.10;;;;;;5050809;28;20034;-83
2023/09/17 11:24:32;;;;;;;34.53;19.98;;;21.20;97.90;;;;;;5054744;28;20025;-83
2023/09/17 11:26:58;;;;;;;39.10;20.25;;;21.30;98.20;;;;;;5053697;28;20037;-83
2023/09/17 11:29:44;;;;;;;31.05;18.05;;;21.30;98.30;;;;;;5054641;28;20028;-83
2023/09/17 11:32:11;;;;;;;30.77;17.65;;;21.30;98.10;;;;;;5054750;28;20052;-84
2023/09/17 11:34:41;;;;;;;30.58;16.25;;;21.30;98.20;;;;;;5053343;28;20063;-82
2023/09/17 11:37:07;;;;;;;26.58;15.20;;;21.30;98.00;;;;;;5053540;28;20029;-83
2023/09/17 11:39:35;;;;;;;30.17;15.82;;;21.30;98.10;;;;;;5036939;28;20018;-83
2023/09/17 11:42:12;;;;;;;28.35;16.45;;;21.40;97.90;;;;;;5053410;28;20036;-83
2023/09/17 11:44:40;;;;;;;30.58;16.85;;;21.40;97.90;;;;;;5053473;28;20032;-82
2023/09/17 11:47:09;;;;;;;29.33;16.25;;;21.40;97.80;;;;;;5053271;28;20034;-83
2023/09/17 11:49:35;;;;;;;30.83;16.52;;;21.40;97.80;;;;;;5036875;28;20017;-83
2023/09/17 11:52:07;;;;;;;27.65;15.75;;;21.50;97.70;;;;;;5036747;28;20026;-83
2023/09/17 11:54:38;;;;;;;30.30;16.65;;;21.50;98.10;;;;;;5053247;28;20018;-83
2023/09/17 11:57:03;;;;;;;27.80;15.43;;;21.60;98.00;;;;;;5021574;28;20033;-83
2023/09/17 11:59:37;;;;;;;28.35;15.82;;;21.60;97.90;;;;;;5036639;28;20030;-83
2023/09/17 12:02:05;;;;;;;29.23;15.45;;;21.60;97.80;;;;;;5054156;28;20060;-82
2023/09/17 12:04:35;;;;;;;28.40;15.77;;;21.60;97.80;;;;;;5053040;28;20377;-84
2023/09/17 12:07:08;;;;;;;26.58;15.95;;;21.70;97.70;;;;;;5053947;28;20025;-83
2023/09/17 12:12:04;;;;;;;23.17;14.48;;;21.80;97.50;;;;;;5053962;28;20415;-83
2023/09/17 12:14:30;;;;;;;26.63;14.25;;;21.80;97.30;;;;;;5036260;28;20026;-82
2023/09/17 12:16:56;;;;;;;25.25;13.18;;;21.80;97.30;;;;;;5053669;28;20036;-83
2023/09/17 12:19:21;;;;;;;22.48;13.15;;;21.90;97.20;;;;;;5052270;28;20042;-83
2023/09/17 12:21:50;;;;;;;22.40;12.93;;;22.00;97.30;;;;;;5019647;28;20101;-83
2023/09/17 12:25:03;;;;;;;18.63;11.55;;;22.10;96.90;;;;;;5036492;28;20049;-83
2023/09/17 12:29:48;;;;;;;22.13;12.48;;;22.50;96.90;;;;;;5052852;28;20037;-83
2023/09/17 12:32:16;;;;;;;16.58;11.02;;;22.60;96.80;;;;;;5019520;28;20092;-83
2023/09/17 12:34:42;;;;;;;16.30;10.70;;;22.70;95.40;;;;;;5053158;28;20029;-82
2023/09/17 12:37:11;;;;;;;15.10;10.25;;;22.70;95.20;;;;;;5053507;28;20025;-82